Airfield :
LOGIN :

Register | Disclaimer

   EN    FR    IT 

 










Legend :    VFR   Marginal VFR   IFR   Intensive IFR   Very Intensive IFR
Visi :
Ceiling :
>= 8 km
>= 3000ft
5 to 8 km
1000 to 3000 ft
1500m to 5 km
500 to 1000 ft
800 to 1500m
200 to 500 ft
< 800m
< 200 ft
Symbols :   Thunderstorms  Fog  Heavy snow  Heavy precipitations  Wind > 20 kt
SIGMETs :     Misc.  Thunderstorms  Icing  Turbulence  Mountain Waves  Volcanic Ashes






- Airport Elevation : 125 ft
- IATA code : MGL


EDLN - Mönchengladbach

CURRENT METAR :
  • 271450Z 22004KT 190V250 7000 RA FEW025 SCT047TCU 17/10 Q1016

EXPIRED METARs :
  • 271420Z 25004KT 220V300 CAVOK 19/09 Q1016
  • 271350Z 29006KT 230V320 9999 FEW048 19/09 Q1016
  • 271320Z 26004KT 200V320 9999 FEW042 BKN048 20/10 Q1016
  • 271250Z VRB03KT 9999 FEW043 20/11 Q1016
  • 271220Z VRB02KT 9999 SCT044 19/10 Q1016
  • 271150Z VRB03KT 9999 FEW040 19/10 Q1017
  • 271120Z VRB05KT 9999 FEW040 19/10 Q1017
  • 271050Z 29006KT 240V340 9999 BKN038 18/11 Q1017
  • 271020Z 25004KT 170V310 9999 FEW034 SCT044 18/10 Q1017
  • 270950Z 18004KT 110V250 9999 FEW033 18/11 Q1017

TAF TAF EDLN
Valid from the 27 at 15:00 until the 28 at 00:00 UTC


271400Z 2715/2724 28004KT 9999 SCT040
TEMPO 2715/2724 SHRA SCT025CB BKN040
PROB30
TEMPO 2715/2719 27015G25KT TSRA



MET'MAP, your aeronautical weather chart ! - Copyright ORBIFLY December 2007 - Disclaimer

ORBIFLY MET'MAP TEAM :

Programming & Development : Alexandra Zaïnal
Original concept : Baudouin d'Aumeries
Technical & hardware support : Manuel Goepfert
Assistance : Marc-Olivier Méhu




SOURCES & CREDITS :

   NOAA